Pittsburgh, Pennsylvania
Current Conditions -  °F | °C
As of 8:53 AM on Thursday 29 Jan 2015 (Local Time) from KAGC Reporting Station
Broken Clouds Broken Clouds  
Wind Chill: -8°   Ceiling: 11000
Heat Index: -4°   Visibility: 10mi
Dew Point: -12°   Wind: 7mph
Humidity: 53%   Direction: 160°SSE
Pressure: 30"   Gusts: NA
Location:  40.44°N, 80°W
Report Text: KAGC 291353Z 16006KT 10SM BKN110 M04/M12 A3000 RMK AO2 SLP182 T10391122
Loading
Personal Weather Stations






























Interactive Weather Map New forecast layout! Learn more

10-Day Weather Forecast

Advertisements
Track Severe Weather on mobile